WetterOnline ( https://www.wetteronline.de )

Wetter aktuell Fehmarn

Aktuelles Wetter: Westermarkelsdorf (9m)

6-stündlich | Neueste Meldungen
Ortszeit Temperatur Wetter
Mo, 09.12. 19:00 7.1° C wolkig
Mo, 09.12. 13:00 7.4° C bewölkt
Mo, 09.12. 7:00 6.4° C wolkig
Mo, 09.12. 1:00 6.9° C wolkig
So, 08.12. 19:00 8.2° C leicht bewölkt
So, 08.12. 13:00 8.7° C bedeckt
So, 08.12. 7:00 8.4° C bedeckt
So, 08.12. 1:00 8.0° C bedeckt
Ortszeit Temperatur Wetter
Mo, 09.12. 19:00 7.1° C wolkig
Mo, 09.12. 18:40 7.2° C wolkig
Mo, 09.12. 18:30 7.2° C bedeckt
Mo, 09.12. 18:20 7.2° C bedeckt
Mo, 09.12. 18:10 7.3° C bedeckt
Mo, 09.12. 18:00 7.2° C wolkig
Mo, 09.12. 17:50 7.2° C wolkig
Mo, 09.12. 17:30 7.1° C bewölkt
Mo, 09.12. 17:00 6.8° C bedeckt
Mo, 09.12. 15:00 7.2° C bedeckt
Ortszeit Relative Feuchte Sichtweite
Mo, 09.12. 19:00 71% 26 km
Mo, 09.12. 13:00 78% 40 km
Mo, 09.12. 7:00 80% 35 km
Mo, 09.12. 1:00 78% 40 km
So, 08.12. 19:00 81% 25 km
So, 08.12. 13:00 91% 24 km
So, 08.12. 7:00 80% 35 km
So, 08.12. 1:00 89% 30 km
Ortszeit Relative Feuchte Sichtweite
Mo, 09.12. 19:00 71% 26 km
Mo, 09.12. 18:40 72% -
Mo, 09.12. 18:30 74% 25 km
Mo, 09.12. 18:20 74% -
Mo, 09.12. 18:10 75% -
Mo, 09.12. 18:00 78% 27 km
Mo, 09.12. 17:50 78% -
Mo, 09.12. 17:30 84% 30 km
Mo, 09.12. 17:00 90% 35 km
Mo, 09.12. 15:00 80% 40 km
Ortszeit Niederschlagsmenge Niederschlagsart
Mo, 09.12. 19:00 0.7 l/m2 in 12 Std. Regen
Mo, 09.12. 13:00 0.1 l/m2 in 6 Std. Regen
Mo, 09.12. 7:00 0.1 l/m2 in 12 Std. -
Mo, 09.12. 1:00 0.1 l/m2 in 6 Std. Regen
So, 08.12. 19:00 0.6 l/m2 in 12 Std. Regen
So, 08.12. 13:00 0.2 l/m2 in 6 Std. Regen
So, 08.12. 7:00 0.1 l/m2 in 12 Std. -
So, 08.12. 1:00 0.1 l/m2 in 6 Std. Regen
Ortszeit Niederschlagsmenge Niederschlagsart
Mo, 09.12. 19:00 0.0 l/m2 in 1 Std. Regen
Mo, 09.12. 18:40 keine Meldung -
Mo, 09.12. 18:30 0.0 l/m2 in 1 Std. -
Mo, 09.12. 18:20 keine Meldung -
Mo, 09.12. 18:10 keine Meldung -
Mo, 09.12. 18:00 0.0 l/m2 in 1 Std. -
Mo, 09.12. 17:50 keine Meldung -
Mo, 09.12. 17:30 0.0 l/m2 in 1 Std. -
Mo, 09.12. 17:00 0.7 l/m2 in 1 Std. Regen
Mo, 09.12. 15:00 keine Meldung -
Ortszeit Stärke Spitze Richtung
km/h Bft. km/h Grad Sektor
Mo, 09.12. 19:00 43 6 58 290° W
Mo, 09.12. 13:00 35 5 52 240° SW
Mo, 09.12. 7:00 33 5 57 230° SW
Mo, 09.12. 1:00 32 5 61 230° SW
So, 08.12. 19:00 41 6 70 240° SW
So, 08.12. 13:00 35 5 61 220° SW
So, 08.12. 7:00 31 5 52 210° SW
So, 08.12. 1:00 28 4 46 240° SW
Ortszeit Stärke Spitze Richtung
km/h Bft. km/h Grad Sektor
Mo, 09.12. 19:00 43 6 58 290° W
Mo, 09.12. 18:40 46 6 - 290° W
Mo, 09.12. 18:30 46 6 59 290° W
Mo, 09.12. 18:20 46 6 - 290° W
Mo, 09.12. 18:10 43 6 - 280° W
Mo, 09.12. 18:00 37 5 46 280° W
Mo, 09.12. 17:50 37 5 - 280° W
Mo, 09.12. 17:30 32 5 40 280° W
Mo, 09.12. 17:00 35 5 56 260° W
Mo, 09.12. 15:00 36 5 43 250° W
Ortszeit Untergrenze Bedeckung Gattung
total tief tief mittel hoch
Mo, 09.12. 19:00 4500 m 6/8 3/8 - - -
Mo, 09.12. 13:00 720 m 8/8 7/8 - - -
Mo, 09.12. 7:00 630 m 5/8 4/8 - - -
Mo, 09.12. 1:00 5400 m 5/8 7/8 - - -
So, 08.12. 19:00 690 m 4/8 4/8 - - -
So, 08.12. 13:00 390 m 8/8 8/8 - - -
So, 08.12. 7:00 510 m 8/8 8/8 - - -
So, 08.12. 1:00 720 m 8/8 8/8 - - -
Ortszeit Bedeckungsgrad in Achtel und Wolkenuntergrenze
Mo, 09.12. 19:00 2(4500m) 3(5100m) 6(7500m)
Mo, 09.12. 18:40 5(4800m)
Mo, 09.12. 18:30 2(3900m) 5(4500m) 8(5100m)
Mo, 09.12. 18:20 2(3900m) 5(4500m) 8(5100m)
Mo, 09.12. 18:10 1(3000m) 8(4500m) 8(6300m)
Mo, 09.12. 18:00 4(2700m) 7(4800m) 7(5400m)
Mo, 09.12. 17:50 4(2700m) 7(4800m) 7(5400m)
Mo, 09.12. 17:30 3(2100m) 7(2400m) 7(6300m)
Mo, 09.12. 17:00 8(1500m) 8(2100m) 8(2400m)
Mo, 09.12. 15:00 6(660m) 7(780m) 8(990m)
Ortszeit Luftdruck NN (hPa) Tendenz (hPa in 3 Std.)
Mo, 09.12. 19:00 1000 + 3,8
Mo, 09.12. 13:00 993 + 0,7
Mo, 09.12. 7:00 991 + 0,5
Mo, 09.12. 1:00 991 - 0,2
So, 08.12. 19:00 991 + 0,8
So, 08.12. 13:00 991 - 3,1
So, 08.12. 7:00 997 - 4,6
So, 08.12. 1:00 1005 - 1,7
Ortszeit Luftdruck NN (hPa) Tendenz (hPa in 3 Std.)
Mo, 09.12. 19:00 1000 + 3,8
Mo, 09.12. 18:40 1000 keine Meldung
Mo, 09.12. 18:30 999 + 3,6
Mo, 09.12. 18:20 999 keine Meldung
Mo, 09.12. 18:10 999 keine Meldung
Mo, 09.12. 18:00 999 + 3,6
Mo, 09.12. 17:50 999 keine Meldung
Mo, 09.12. 17:30 998 + 3,3
Mo, 09.12. 17:00 997 + 3,0
Mo, 09.12. 15:00 995 + 1,6
Ortszeit Schneehöhe (cm)
Mo, 09.12. 19:00 0
Mo, 09.12. 13:00 0
Mo, 09.12. 7:00 0
Mo, 09.12. 1:00 0
So, 08.12. 19:00 0
So, 08.12. 13:00 0
So, 08.12. 7:00 0
So, 08.12. 1:00 0
Ortszeit Schneehöhe (cm)
Mo, 09.12. 19:00 0
Mo, 09.12. 18:40 0
Mo, 09.12. 18:30 0
Mo, 09.12. 18:20 0
Mo, 09.12. 18:10 0
Mo, 09.12. 18:00 0
Mo, 09.12. 17:50 0
Mo, 09.12. 17:30 0
Mo, 09.12. 17:00 0
Mo, 09.12. 15:00 -
Link zu dieser Seite / Seite empfehlen

Das Wetter in ...